Time;durP1;ratioP1;P1;durP2;ratioP2;P2;SDS_P1;SDS_P2;PMS_P1;PMS_P2;Temp;Humidity;BMP_temperature;BMP_pressure;BME280_temperature;BME280_humidity;BME280_pressure;Samples;Min_cycle;Max_cycle;Signal;HPM_P1;HPM_P2
2020/12/15 00:00:25;;;;;;;;;;;27.40;43.30;;;;;;5034930;28;20256;-55
2020/12/15 00:02:51;;;;;;;;;;;27.40;43.30;;;;;;5033129;28;19921;-55
2020/12/15 00:05:16;;;;;;;;;;;27.40;43.30;;;;;;5035202;28;19917;-56
2020/12/15 00:07:41;;;;;;;;;;;27.40;43.30;;;;;;5034754;28;19915;-52
2020/12/15 00:10:07;;;;;;;;;;;27.40;43.20;;;;;;5035152;28;19916;-53
2020/12/15 00:12:32;;;;;;;;;;;27.40;43.30;;;;;;5034636;28;20006;-52
2020/12/15 00:14:58;;;;;;;;;;;27.40;43.20;;;;;;5034975;28;19917;-53
2020/12/15 00:17:23;;;;;;;;;;;27.40;43.20;;;;;;5034825;28;20019;-52
2020/12/15 00:19:49;;;;;;;;;;;27.40;43.20;;;;;;5034737;28;19936;-52
2020/12/15 00:22:14;;;;;;;;;;;27.50;43.20;;;;;;5034895;28;19918;-53
2020/12/15 00:24:40;;;;;;;;;;;27.40;43.10;;;;;;5034628;28;19975;-53
2020/12/15 00:27:05;;;;;;;;;;;27.40;43.10;;;;;;5034803;28;19909;-54
2020/12/15 00:29:31;;;;;;;;;;;27.50;43.20;;;;;;5034679;28;20011;-53
2020/12/15 00:31:56;;;;;;;;;;;27.40;43.20;;;;;;5034543;28;20244;-51
2020/12/15 00:34:22;;;;;;;;;;;27.40;43.20;;;;;;5033803;28;19913;-55
2020/12/15 00:36:47;;;;;;;;;;;27.40;43.40;;;;;;5034340;28;19917;-52
2020/12/15 00:39:13;;;;;;;;;;;27.40;43.50;;;;;;5034221;28;19913;-52
2020/12/15 00:41:39;;;;;;;;;;;27.30;43.20;;;;;;5034269;28;19952;-54
2020/12/15 00:44:04;;;;;;;;;;;27.30;43.20;;;;;;5034521;28;20248;-51
2020/12/15 00:46:29;;;;;;;;;;;27.30;43.20;;;;;;5034188;28;19920;-54
2020/12/15 00:48:55;;;;;;;;;;;27.30;43.20;;;;;;5034199;28;19917;-52
2020/12/15 00:51:20;;;;;;;;;;;27.30;43.30;;;;;;5034425;28;20373;-54
2020/12/15 00:53:46;;;;;;;;;;;27.30;43.20;;;;;;5034259;28;19909;-52
2020/12/15 00:56:12;;;;;;;;;;;27.20;43.30;;;;;;5034239;28;19917;-62
2020/12/15 00:58:37;;;;;;;;;;;27.20;43.40;;;;;;5033856;28;20359;-61
2020/12/15 01:01:04;;;;;;;;;;;27.20;43.60;;;;;;5033498;28;19920;-64
2020/12/15 01:03:29;;;;;;;;;;;27.20;43.80;;;;;;5033583;28;19909;-64
2020/12/15 01:05:55;;;;;;;;;;;27.20;43.60;;;;;;5034108;28;19920;-63
2020/12/15 01:08:20;;;;;;;;;;;27.30;43.50;;;;;;5033675;28;19971;-65
2020/12/15 01:10:46;;;;;;;;;;;27.40;43.50;;;;;;5032801;28;19913;-66
2020/12/15 01:13:11;;;;;;;;;;;27.40;43.40;;;;;;5033986;28;19924;-62
2020/12/15 01:15:37;;;;;;;;;;;27.40;43.40;;;;;;5033544;28;20032;-64
2020/12/15 01:18:02;;;;;;;;;;;27.40;43.30;;;;;;5033500;28;19909;-58
2020/12/15 01:20:27;;;;;;;;;;;27.40;43.30;;;;;;5033696;28;19909;-63
2020/12/15 01:22:53;;;;;;;;;;;27.50;43.10;;;;;;5033536;28;20260;-63
2020/12/15 01:25:18;;;;;;;;;;;27.50;43.10;;;;;;5033577;28;19948;-64
2020/12/15 01:27:44;;;;;;;;;;;27.50;43.20;;;;;;5033567;28;20370;-62
2020/12/15 01:30:09;;;;;;;;;;;27.50;43.10;;;;;;5033723;28;19909;-63
2020/12/15 01:32:35;;;;;;;;;;;27.50;43.10;;;;;;5033294;28;19913;-61
2020/12/15 01:35:00;;;;;;;;;;;27.50;43.10;;;;;;5033196;28;19916;-64
2020/12/15 01:37:26;;;;;;;;;;;27.50;43.00;;;;;;5033201;28;19913;-63
2020/12/15 01:39:51;;;;;;;;;;;27.50;43.00;;;;;;5032990;28;19917;-64
2020/12/15 01:42:16;;;;;;;;;;;27.50;43.00;;;;;;5032966;28;19917;-69
2020/12/15 01:44:42;;;;;;;;;;;27.60;43.70;;;;;;5033457;28;19909;-69
2020/12/15 01:47:11;;;;;;;;;;;27.50;43.10;;;;;;5033232;28;20322;-67
2020/12/15 01:49:37;;;;;;;;;;;27.60;43.10;;;;;;5033213;28;19920;-65
2020/12/15 01:52:02;;;;;;;;;;;27.60;43.00;;;;;;5032926;28;19910;-67
2020/12/15 01:54:28;;;;;;;;;;;27.60;43.10;;;;;;5031875;28;20012;-65
2020/12/15 01:56:54;;;;;;;;;;;27.60;43.10;;;;;;5032000;28;19917;-67
2020/12/15 01:59:20;;;;;;;;;;;27.60;43.00;;;;;;5031829;28;19909;-66
2020/12/15 02:01:45;;;;;;;;;;;27.60;42.90;;;;;;5031620;28;19913;-70
2020/12/15 02:04:11;;;;;;;;;;;27.60;43.10;;;;;;5032873;28;19963;-70
2020/12/15 02:06:36;;;;;;;;;;;27.60;43.10;;;;;;5032372;28;20510;-75
2020/12/15 02:09:04;;;;;;;;;;;27.60;43.00;;;;;;5032863;28;19921;-70
2020/12/15 02:11:30;;;;;;;;;;;27.60;42.90;;;;;;5032581;28;20367;-71
2020/12/15 02:13:55;;;;;;;;;;;27.60;43.00;;;;;;5032772;28;19919;-67
2020/12/15 02:16:20;;;;;;;;;;;27.60;43.00;;;;;;5032613;28;19917;-66
2020/12/15 02:18:46;;;;;;;;;;;27.60;42.90;;;;;;5032609;28;19916;-66
2020/12/15 02:21:11;;;;;;;;;;;27.60;42.90;;;;;;5032923;28;19917;-70
2020/12/15 02:23:37;;;;;;;;;;;27.60;42.80;;;;;;5034753;28;20342;-69
2020/12/15 02:26:03;;;;;;;;;;;27.50;42.80;;;;;;5036974;28;19913;-63
2020/12/15 02:28:28;;;;;;;;;;;27.60;42.90;;;;;;5036985;28;20394;-67
2020/12/15 02:30:54;;;;;;;;;;;27.60;42.80;;;;;;5036925;28;19910;-67
2020/12/15 02:33:19;;;;;;;;;;;27.60;42.60;;;;;;5036612;28;19936;-64
2020/12/15 02:35:45;;;;;;;;;;;27.60;42.80;;;;;;5036466;28;20018;-67
2020/12/15 02:38:10;;;;;;;;;;;27.60;42.70;;;;;;5036754;28;19916;-70
2020/12/15 02:40:36;;;;;;;;;;;27.60;42.80;;;;;;5036551;28;20059;-67
2020/12/15 02:43:01;;;;;;;;;;;27.60;42.70;;;;;;5036566;28;19909;-75
2020/12/15 02:45:27;;;;;;;;;;;27.60;42.80;;;;;;5036514;28;20373;-61
2020/12/15 02:47:52;;;;;;;;;;;27.60;42.70;;;;;;5036371;28;19924;-64
2020/12/15 02:50:21;;;;;;;;;;;27.60;42.60;;;;;;5035714;28;19924;-64
2020/12/15 02:52:47;;;;;;;;;;;27.60;42.70;;;;;;5036140;28;19920;-64
2020/12/15 02:55:12;;;;;;;;;;;27.60;42.80;;;;;;5036396;28;20334;-64
2020/12/15 02:57:38;;;;;;;;;;;27.60;42.70;;;;;;5036446;28;20367;-57
2020/12/15 03:00:07;;;;;;;;;;;27.60;42.70;;;;;;5036071;28;19909;-64
2020/12/15 03:02:33;;;;;;;;;;;27.50;42.50;;;;;;5036096;28;20441;-64
2020/12/15 03:04:58;;;;;;;;;;;27.60;42.60;;;;;;5035859;28;19913;-67
2020/12/15 03:07:24;;;;;;;;;;;27.60;42.60;;;;;;5035250;28;19913;-72
2020/12/15 03:09:49;;;;;;;;;;;27.60;42.70;;;;;;5035671;28;19920;-70
2020/12/15 03:12:15;;;;;;;;;;;27.60;42.70;;;;;;5035910;28;20291;-64
2020/12/15 03:14:40;;;;;;;;;;;27.60;42.90;;;;;;5035851;28;19962;-61
2020/12/15 03:17:05;;;;;;;;;;;27.60;42.80;;;;;;5035710;28;19917;-64
2020/12/15 03:19:31;;;;;;;;;;;27.50;42.80;;;;;;5035643;28;20305;-66
2020/12/15 03:21:56;;;;;;;;;;;27.50;42.80;;;;;;5035316;28;19920;-65
2020/12/15 03:24:22;;;;;;;;;;;27.50;42.80;;;;;;5036095;28;20386;-63
2020/12/15 03:26:47;;;;;;;;;;;27.50;42.90;;;;;;5035371;28;19921;-62
2020/12/15 03:29:13;;;;;;;;;;;27.40;42.70;;;;;;5035946;28;19912;-63
2020/12/15 03:31:38;;;;;;;;;;;27.40;43.10;;;;;;5035448;28;19913;-70
2020/12/15 03:34:04;;;;;;;;;;;27.40;43.10;;;;;;5035275;28;19913;-67
2020/12/15 03:36:29;;;;;;;;;;;27.40;43.10;;;;;;5035643;28;19917;-67
2020/12/15 03:38:55;;;;;;;;;;;27.30;42.90;;;;;;5035443;28;19917;-68
2020/12/15 03:41:20;;;;;;;;;;;27.30;43.00;;;;;;5035350;28;19916;-65
2020/12/15 03:43:46;;;;;;;;;;;27.40;42.90;;;;;;5035229;28;20357;-66
2020/12/15 03:46:11;;;;;;;;;;;27.50;42.90;;;;;;5035603;28;19909;-62
2020/12/15 03:48:36;;;;;;;;;;;27.50;42.80;;;;;;5035431;28;20271;-67
2020/12/15 03:51:02;;;;;;;;;;;27.50;42.90;;;;;;5034496;28;19928;-62
2020/12/15 03:53:27;;;;;;;;;;;27.50;42.70;;;;;;5035533;28;19916;-62
2020/12/15 03:55:53;;;;;;;;;;;27.50;42.60;;;;;;5035309;28;20441;-65
2020/12/15 03:58:18;;;;;;;;;;;27.50;42.60;;;;;;5035250;28;19952;-59
2020/12/15 04:00:44;;;;;;;;;;;27.60;42.50;;;;;;5035173;28;19917;-64
2020/12/15 04:03:09;;;;;;;;;;;27.60;42.40;;;;;;5035020;28;20264;-63
2020/12/15 04:05:35;;;;;;;;;;;27.50;42.40;;;;;;5035035;28;20279;-57
2020/12/15 04:08:01;;;;;;;;;;;27.50;42.50;;;;;;5034698;28;20283;-68
2020/12/15 04:10:26;;;;;;;;;;;27.50;42.60;;;;;;5035040;28;19909;-78
2020/12/15 04:12:52;;;;;;;;;;;27.50;42.90;;;;;;5034423;28;19976;-65
2020/12/15 04:15:17;;;;;;;;;;;27.50;42.70;;;;;;5034544;28;19909;-72
2020/12/15 04:17:43;;;;;;;;;;;27.50;42.60;;;;;;5034899;28;19916;-70
2020/12/15 04:20:08;;;;;;;;;;;27.50;42.50;;;;;;5034958;28;20314;-69
2020/12/15 04:22:34;;;;;;;;;;;27.50;42.70;;;;;;5034597;28;19909;-70
2020/12/15 04:24:59;;;;;;;;;;;27.50;42.60;;;;;;5034811;28;19917;-67
2020/12/15 04:27:25;;;;;;;;;;;27.50;42.60;;;;;;5034195;28;20275;-69
2020/12/15 04:29:51;;;;;;;;;;;27.50;42.50;;;;;;5034531;28;19913;-73
2020/12/15 04:32:16;;;;;;;;;;;27.50;43.00;;;;;;5034336;28;19909;-67
2020/12/15 04:34:42;;;;;;;;;;;27.50;42.50;;;;;;5034674;28;19956;-71
2020/12/15 04:37:07;;;;;;;;;;;27.50;42.40;;;;;;5034436;28;20394;-73
2020/12/15 04:39:32;;;;;;;;;;;27.50;42.50;;;;;;5034246;28;19963;-64
2020/12/15 04:41:58;;;;;;;;;;;27.50;42.40;;;;;;5034254;28;19920;-59
2020/12/15 04:44:24;;;;;;;;;;;27.50;42.50;;;;;;5032909;28;20298;-62
2020/12/15 04:46:55;;;;;;;;;;;27.50;42.50;;;;;;5033504;28;19976;-64
2020/12/15 04:49:21;;;;;;;;;;;27.40;42.60;;;;;;5034101;28;19962;-67
2020/12/15 04:51:58;;;;;;;;;;;27.30;42.90;;;;;;5032744;28;19999;-61
2020/12/15 04:54:30;;;;;;;;;;;27.30;42.90;;;;;;5033630;28;19913;-56
2020/12/15 04:56:56;;;;;;;;;;;27.30;43.10;;;;;;5033835;28;20367;-54
2020/12/15 04:59:21;;;;;;;;;;;27.30;42.80;;;;;;5033736;28;20059;-54
2020/12/15 05:01:47;;;;;;;;;;;27.30;42.80;;;;;;5032290;28;20373;-55
2020/12/15 05:04:12;;;;;;;;;;;27.30;42.90;;;;;;5032023;28;19985;-58
2020/12/15 05:06:38;;;;;;;;;;;27.30;42.80;;;;;;5033090;28;19920;-54
2020/12/15 05:09:03;;;;;;;;;;;27.30;43.00;;;;;;5033042;28;19913;-55
2020/12/15 05:11:29;;;;;;;;;;;27.20;42.90;;;;;;5033635;28;20015;-56
2020/12/15 05:13:54;;;;;;;;;;;27.20;42.90;;;;;;5032661;28;19919;-57
2020/12/15 05:16:20;;;;;;;;;;;27.20;42.90;;;;;;5032126;28;19931;-55
2020/12/15 05:18:45;;;;;;;;;;;27.20;43.10;;;;;;5033552;28;19921;-58
2020/12/15 05:21:11;;;;;;;;;;;27.20;43.00;;;;;;5033878;28;19913;-58
2020/12/15 05:23:43;;;;;;;;;;;27.20;43.00;;;;;;5033331;28;20267;-58
2020/12/15 05:26:08;;;;;;;;;;;27.20;43.00;;;;;;5033817;28;19916;-56
2020/12/15 05:28:34;;;;;;;;;;;27.20;43.10;;;;;;5032760;28;19913;-55
2020/12/15 05:30:59;;;;;;;;;;;27.10;43.10;;;;;;5032655;28;19913;-58
2020/12/15 05:33:25;;;;;;;;;;;27.00;43.20;;;;;;5032303;28;20399;-57
2020/12/15 05:35:50;;;;;;;;;;;27.00;43.20;;;;;;5033377;28;19920;-54
2020/12/15 05:38:17;;;;;;;;;;;27.00;43.20;;;;;;5033165;28;19912;-56
2020/12/15 05:40:42;;;;;;;;;;;27.10;43.10;;;;;;5033322;28;19955;-59
2020/12/15 05:43:08;;;;;;;;;;;27.00;43.30;;;;;;5032955;28;20003;-54
2020/12/15 05:45:33;;;;;;;;;;;27.00;43.80;;;;;;5032814;28;19909;-55
2020/12/15 05:48:03;;;;;;;;;;;27.10;43.20;;;;;;5033124;28;19913;-58
2020/12/15 05:50:28;;;;;;;;;;;27.10;43.10;;;;;;5032880;28;19913;-58
2020/12/15 05:52:54;;;;;;;;;;;27.00;43.10;;;;;;5033063;28;19910;-54
2020/12/15 05:55:20;;;;;;;;;;;27.00;43.00;;;;;;5032605;28;20374;-54
2020/12/15 05:57:45;;;;;;;;;;;27.00;43.00;;;;;;5031660;28;19917;-54
2020/12/15 06:00:11;;;;;;;;;;;27.10;43.10;;;;;;5033109;28;19909;-57
2020/12/15 06:02:36;;;;;;;;;;;27.00;42.90;;;;;;5032369;28;19917;-54
2020/12/15 06:05:02;;;;;;;;;;;27.00;42.90;;;;;;5032216;28;19917;-54
2020/12/15 06:07:28;;;;;;;;;;;27.00;42.90;;;;;;5033069;28;19915;-55
2020/12/15 06:09:57;;;;;;;;;;;27.00;42.90;;;;;;5031867;28;20263;-54
2020/12/15 06:12:23;;;;;;;;;;;27.00;42.80;;;;;;5032306;28;20000;-55
2020/12/15 06:14:49;;;;;;;;;;;27.10;42.90;;;;;;5032637;28;19960;-57
2020/12/15 06:17:15;;;;;;;;;;;27.10;42.90;;;;;;5032878;28;19917;-56
2020/12/15 06:19:40;;;;;;;;;;;27.00;42.80;;;;;;5032491;28;19913;-57
2020/12/15 06:22:06;;;;;;;;;;;27.10;42.90;;;;;;5033079;28;20279;-55
2020/12/15 06:24:38;;;;;;;;;;;27.00;42.80;;;;;;5064168;28;19913;-55
2020/12/15 06:27:03;;;;;;;;;;;27.00;42.80;;;;;;5032636;28;19909;-55
2020/12/15 06:29:29;;;;;;;;;;;27.00;42.80;;;;;;5032574;28;19958;-56
2020/12/15 06:31:56;;;;;;;;;;;27.00;42.80;;;;;;5032206;28;19919;-55
2020/12/15 06:34:25;;;;;;;;;;;27.00;42.80;;;;;;5032593;28;19909;-57
2020/12/15 06:36:51;;;;;;;;;;;27.00;42.80;;;;;;5032566;28;20011;-56
2020/12/15 06:39:16;;;;;;;;;;;27.00;42.90;;;;;;5032830;28;20425;-55
2020/12/15 06:41:42;;;;;;;;;;;27.00;42.80;;;;;;5032436;28;19913;-56
2020/12/15 06:44:07;;;;;;;;;;;27.00;42.80;;;;;;5032842;28;19935;-58
2020/12/15 06:46:33;;;;;;;;;;;27.00;42.80;;;;;;5032227;28;19924;-59
2020/12/15 06:48:58;;;;;;;;;;;26.90;42.70;;;;;;5032516;28;19967;-58
2020/12/15 06:51:30;;;;;;;;;;;27.00;42.80;;;;;;5032787;28;19996;-57
2020/12/15 06:53:59;;;;;;;;;;;27.00;42.80;;;;;;5032184;28;19924;-55
2020/12/15 06:56:25;;;;;;;;;;;26.90;42.80;;;;;;5032270;28;20416;-56
2020/12/15 06:59:04;;;;;;;;;;;26.90;42.80;;;;;;5032385;28;19913;-58
2020/12/15 07:01:30;;;;;;;;;;;26.90;42.70;;;;;;5031894;28;20051;-54
2020/12/15 07:03:56;;;;;;;;;;;27.00;42.80;;;;;;5031986;28;20028;-55
2020/12/15 07:06:21;;;;;;;;;;;26.90;42.70;;;;;;5032578;28;19909;-54
2020/12/15 07:08:59;;;;;;;;;;;26.90;42.70;;;;;;5032536;28;19975;-58
2020/12/15 07:11:25;;;;;;;;;;;26.90;42.80;;;;;;5035153;28;20442;-57
2020/12/15 07:13:58;;;;;;;;;;;26.90;42.70;;;;;;5035802;28;19967;-54
2020/12/15 07:16:23;;;;;;;;;;;26.90;42.80;;;;;;5035788;28;19921;-55
2020/12/15 07:18:49;;;;;;;;;;;26.90;42.70;;;;;;5035778;28;20003;-57
2020/12/15 07:21:15;;;;;;;;;;;26.90;42.70;;;;;;5036006;28;19919;-57
2020/12/15 07:23:40;;;;;;;;;;;26.90;42.70;;;;;;5035444;28;19909;-57
2020/12/15 07:26:13;;;;;;;;;;;26.90;42.70;;;;;;5035668;28;19917;-55
2020/12/15 07:28:38;;;;;;;;;;;26.90;42.70;;;;;;5067618;28;19923;-55
2020/12/15 07:31:03;;;;;;;;;;;26.90;42.70;;;;;;5034730;28;20428;-57
2020/12/15 07:33:29;;;;;;;;;;;26.90;42.70;;;;;;5035335;28;19916;-57
2020/12/15 07:35:54;;;;;;;;;;;26.90;42.70;;;;;;5035293;28;19928;-56
2020/12/15 07:38:20;;;;;;;;;;;26.90;42.80;;;;;;5035252;28;19949;-54
2020/12/15 07:40:45;;;;;;;;;;;26.90;42.70;;;;;;5067747;28;19917;-55
2020/12/15 07:43:11;;;;;;;;;;;26.90;42.70;;;;;;5035371;28;19999;-55
2020/12/15 07:45:36;;;;;;;;;;;26.90;42.80;;;;;;5035716;28;20259;-55
2020/12/15 07:48:05;;;;;;;;;;;26.90;42.70;;;;;;5035035;28;20130;-56
2020/12/15 07:50:30;;;;;;;;;;;26.90;42.60;;;;;;5035019;28;20453;-56
2020/12/15 07:52:56;;;;;;;;;;;26.90;42.70;;;;;;5034903;28;19909;-55
2020/12/15 07:55:22;;;;;;;;;;;26.90;42.60;;;;;;5034612;28;19924;-55
2020/12/15 07:57:47;;;;;;;;;;;26.90;42.60;;;;;;5034734;28;19987;-58
2020/12/15 08:00:16;;;;;;;;;;;26.90;42.60;;;;;;5034851;28;19913;-54
2020/12/15 08:02:42;;;;;;;;;;;26.90;42.50;;;;;;5026901;28;19913;-56
2020/12/15 08:05:09;;;;;;;;;;;26.90;42.50;;;;;;5034935;28;19915;-54
2020/12/15 08:07:39;;;;;;;;;;;26.90;42.50;;;;;;5034841;28;20287;-55
2020/12/15 08:10:04;;;;;;;;;;;26.90;42.60;;;;;;5034778;28;20023;-56
2020/12/15 08:12:30;;;;;;;;;;;26.90;42.60;;;;;;5034584;28;19941;-57
2020/12/15 08:14:56;;;;;;;;;;;26.90;42.60;;;;;;5066969;28;20008;-55
2020/12/15 08:17:22;;;;;;;;;;;26.80;42.50;;;;;;5034631;28;19924;-56
2020/12/15 08:19:47;;;;;;;;;;;26.90;42.50;;;;;;5034585;28;19913;-57
2020/12/15 08:22:17;;;;;;;;;;;26.90;42.50;;;;;;5035026;28;20363;-55
2020/12/15 08:24:42;;;;;;;;;;;26.90;42.50;;;;;;5034005;28;20379;-57
2020/12/15 08:27:11;;;;;;;;;;;26.90;42.50;;;;;;5033464;28;19909;-59
2020/12/15 08:29:36;;;;;;;;;;;26.90;42.50;;;;;;5034524;28;20329;-58
2020/12/15 08:32:02;;;;;;;;;;;26.90;42.50;;;;;;5034253;28;20004;-54
2020/12/15 08:34:27;;;;;;;;;;;26.80;42.50;;;;;;5034131;28;19913;-57
2020/12/15 08:36:53;;;;;;;;;;;26.90;42.50;;;;;;5034587;28;20010;-58
2020/12/15 08:39:19;;;;;;;;;;;26.80;42.40;;;;;;5034502;28;20390;-55
2020/12/15 08:41:45;;;;;;;;;;;26.80;42.50;;;;;;5033844;28;20013;-55
2020/12/15 08:44:12;;;;;;;;;;;26.90;42.50;;;;;;5033748;28;19920;-57
2020/12/15 08:46:37;;;;;;;;;;;26.80;42.50;;;;;;5034117;28;19971;-57
2020/12/15 08:49:09;;;;;;;;;;;26.80;42.50;;;;;;5034364;28;19909;-55
2020/12/15 08:51:34;;;;;;;;;;;26.80;42.50;;;;;;5034175;28;20359;-54
2020/12/15 08:54:05;;;;;;;;;;;26.80;42.50;;;;;;5064414;28;19913;-55
2020/12/15 08:56:30;;;;;;;;;;;26.80;42.40;;;;;;5034176;28;19927;-55
2020/12/15 08:58:56;;;;;;;;;;;26.80;42.50;;;;;;5033508;28;19917;-55
2020/12/15 09:01:30;;;;;;;;;;;26.80;42.40;;;;;;5033481;28;19940;-57
2020/12/15 09:03:55;;;;;;;;;;;26.80;42.40;;;;;;5033758;28;20402;-55
2020/12/15 09:06:29;;;;;;;;;;;26.80;42.40;;;;;;5034010;28;19944;-55
2020/12/15 09:08:54;;;;;;;;;;;26.80;42.40;;;;;;5032845;28;19921;-56
2020/12/15 09:11:20;;;;;;;;;;;26.90;42.40;;;;;;5033126;28;20298;-58
2020/12/15 09:13:52;;;;;;;;;;;26.90;42.40;;;;;;5033235;28;19929;-56
2020/12/15 09:16:22;;;;;;;;;;;26.80;42.40;;;;;;5032771;28;19921;-57
2020/12/15 09:18:49;;;;;;;;;;;26.80;42.40;;;;;;5033280;28;20131;-55
2020/12/15 09:21:16;;;;;;;;;;;26.80;42.40;;;;;;5033574;28;20390;-55
2020/12/15 09:23:48;;;;;;;;;;;26.80;42.40;;;;;;5033145;28;20291;-55
2020/12/15 09:26:14;;;;;;;;;;;26.80;42.40;;;;;;5032960;28;20313;-56
2020/12/15 09:28:39;;;;;;;;;;;26.80;42.40;;;;;;5033470;28;19913;-55
2020/12/15 09:31:05;;;;;;;;;;;26.80;42.40;;;;;;5033267;28;20153;-55
2020/12/15 09:33:30;;;;;;;;;;;26.80;42.30;;;;;;5032934;28;19917;-57
2020/12/15 09:35:56;;;;;;;;;;;26.80;42.40;;;;;;5033108;28;19964;-57
2020/12/15 09:38:21;;;;;;;;;;;26.80;42.40;;;;;;5033055;28;19913;-58
2020/12/15 09:40:47;;;;;;;;;;;26.80;42.40;;;;;;5033162;28;20349;-58
2020/12/15 09:43:12;;;;;;;;;;;26.80;42.40;;;;;;5032891;28;19913;-56
2020/12/15 09:45:38;;;;;;;;;;;26.80;42.40;;;;;;5032998;28;19913;-54
2020/12/15 09:48:04;;;;;;;;;;;26.80;42.30;;;;;;5033080;28;19940;-58
2020/12/15 09:50:34;;;;;;;;;;;26.80;42.40;;;;;;5033416;28;20325;-59
2020/12/15 09:52:59;;;;;;;;;;;26.80;42.30;;;;;;5032526;28;19921;-54
2020/12/15 09:55:25;;;;;;;;;;;26.80;42.40;;;;;;5032651;28;19967;-55
2020/12/15 09:57:50;;;;;;;;;;;26.80;42.40;;;;;;5033122;28;19913;-55
2020/12/15 10:00:16;;;;;;;;;;;26.80;42.30;;;;;;5032522;28;19917;-58
2020/12/15 10:02:41;;;;;;;;;;;26.80;42.40;;;;;;5032533;28;20287;-58
2020/12/15 10:05:10;;;;;;;;;;;26.80;42.40;;;;;;5032998;28;19920;-55
2020/12/15 10:07:39;;;;;;;;;;;26.80;42.40;;;;;;5033112;28;19913;-55
2020/12/15 10:10:04;;;;;;;;;;;26.80;42.50;;;;;;5032829;28;19920;-58
2020/12/15 10:12:30;;;;;;;;;;;26.80;42.40;;;;;;5032735;28;19921;-57
2020/12/15 10:14:55;;;;;;;;;;;26.80;42.50;;;;;;5033087;28;19913;-58
2020/12/15 10:17:21;;;;;;;;;;;26.80;42.40;;;;;;5032642;28;20454;-57
2020/12/15 10:19:46;;;;;;;;;;;26.70;42.40;;;;;;5032702;28;19924;-55
2020/12/15 10:22:12;;;;;;;;;;;26.70;42.40;;;;;;5032738;28;20336;-59
2020/12/15 10:24:37;;;;;;;;;;;26.70;42.40;;;;;;5031976;28;20392;-53
2020/12/15 10:27:03;;;;;;;;;;;26.80;42.50;;;;;;5032876;28;19940;-56
2020/12/15 10:29:29;;;;;;;;;;;26.70;42.40;;;;;;5032235;28;20421;-54
2020/12/15 10:31:55;;;;;;;;;;;26.70;42.50;;;;;;5032589;28;19913;-53
2020/12/15 10:34:21;;;;;;;;;;;26.70;42.50;;;;;;5032464;28;19919;-56
2020/12/15 10:36:47;;;;;;;;;;;26.70;42.50;;;;;;5032077;28;20019;-56
2020/12/15 10:39:12;;;;;;;;;;;26.70;42.50;;;;;;5032058;28;20286;-56
2020/12/15 10:41:40;;;;;;;;;;;26.60;38.20;;;;;;5032857;28;20363;-56
2020/12/15 10:44:06;;;;;;;;;;;26.20;34.00;;;;;;5033512;28;19917;-53
2020/12/15 10:46:32;;;;;;;;;;;25.80;37.10;;;;;;5036238;28;19913;-55
2020/12/15 10:48:58;;;;;;;;;;;25.80;37.80;;;;;;5036496;28;20463;-53
2020/12/15 10:51:25;;;;;;;;;;;25.90;38.10;;;;;;5036099;28;19925;-53
2020/12/15 10:53:51;;;;;;;;;;;26.10;38.10;;;;;;5026898;28;19914;-63
2020/12/15 10:56:16;;;;;;;;;;;26.30;38.40;;;;;;5032424;28;20040;-64
2020/12/15 10:58:42;;;;;;;;;;;26.40;38.60;;;;;;5036249;28;20397;-66
2020/12/15 11:01:10;;;;;;;;;;;26.50;39.00;;;;;;5029789;28;19918;-63
2020/12/15 11:03:35;;;;;;;;;;;26.50;39.40;;;;;;5016310;28;20315;-51
2020/12/15 11:06:02;;;;;;;;;;;26.70;39.70;;;;;;5025344;28;20000;-57
2020/12/15 11:08:28;;;;;;;;;;;26.70;40.20;;;;;;5036019;28;20350;-57
2020/12/15 11:10:55;;;;;;;;;;;26.80;40.30;;;;;;5035710;28;19917;-56
2020/12/15 11:13:21;;;;;;;;;;;26.80;40.50;;;;;;5035969;28;19913;-57
2020/12/15 11:15:46;;;;;;;;;;;26.80;40.80;;;;;;5035496;28;19917;-57
2020/12/15 11:18:12;;;;;;;;;;;26.80;41.40;;;;;;5035528;28;19920;-57
2020/12/15 11:20:37;;;;;;;;;;;26.80;41.90;;;;;;5035577;28;19909;-58
2020/12/15 11:23:04;;;;;;;;;;;26.80;42.10;;;;;;5035445;28;19921;-58
2020/12/15 11:25:30;;;;;;;;;;;26.80;42.00;;;;;;5032727;28;20003;-55
2020/12/15 11:27:55;;;;;;;;;;;26.90;42.00;;;;;;5035193;28;20375;-60
2020/12/15 11:30:21;;;;;;;;;;;26.90;42.00;;;;;;5027336;28;20283;-61
2020/12/15 11:32:47;;;;;;;;;;;26.90;42.00;;;;;;5017046;28;20356;-60
2020/12/15 11:35:13;;;;;;;;;;;26.90;42.00;;;;;;5022501;28;20265;-60
2020/12/15 11:37:42;;;;;;;;;;;27.00;41.80;;;;;;5016361;28;20040;-59
2020/12/15 11:40:07;;;;;;;;;;;27.00;42.40;;;;;;5035665;28;20369;-61
2020/12/15 11:42:33;;;;;;;;;;;27.00;41.40;;;;;;5035471;28;20043;-60
2020/12/15 11:44:58;;;;;;;;;;;27.10;41.80;;;;;;5034748;28;20371;-60
2020/12/15 11:47:24;;;;;;;;;;;27.00;41.80;;;;;;5035229;28;19932;-63
2020/12/15 11:49:50;;;;;;;;;;;27.00;41.00;;;;;;5035066;28;19913;-69
2020/12/15 11:52:15;;;;;;;;;;;27.20;41.00;;;;;;5035163;28;20000;-64
2020/12/15 11:54:41;;;;;;;;;;;27.20;40.90;;;;;;5034402;28;19913;-65
2020/12/15 11:57:08;;;;;;;;;;;27.20;40.80;;;;;;5034932;28;19921;-63
2020/12/15 11:59:34;;;;;;;;;;;27.20;41.00;;;;;;5034596;28;20367;-68
2020/12/15 12:01:59;;;;;;;;;;;27.20;41.10;;;;;;5035010;28;19920;-65
2020/12/15 12:04:25;;;;;;;;;;;27.30;40.80;;;;;;5034743;28;20279;-65
2020/12/15 12:06:50;;;;;;;;;;;27.30;41.50;;;;;;5034380;28;20011;-66
2020/12/15 12:09:16;;;;;;;;;;;27.30;40.70;;;;;;5034830;28;19918;-64
2020/12/15 12:11:41;;;;;;;;;;;27.40;40.70;;;;;;5034620;28;19925;-71
2020/12/15 12:14:07;;;;;;;;;;;27.30;41.40;;;;;;5034921;28;19913;-76
2020/12/15 12:16:33;;;;;;;;;;;27.20;41.90;;;;;;5034568;28;19921;-73
2020/12/15 12:18:59;;;;;;;;;;;27.20;41.90;;;;;;5035033;28;19910;-73
2020/12/15 12:21:24;;;;;;;;;;;27.20;41.70;;;;;;5034489;28;20434;-75
2020/12/15 12:23:50;;;;;;;;;;;27.20;41.10;;;;;;5034388;28;19963;-75
2020/12/15 12:26:15;;;;;;;;;;;27.20;41.50;;;;;;5034397;28;19913;-74
2020/12/15 12:28:41;;;;;;;;;;;27.20;41.50;;;;;;5034397;28;20352;-75
2020/12/15 12:31:09;;;;;;;;;;;27.10;41.20;;;;;;5034122;28;20386;-75
2020/12/15 12:33:35;;;;;;;;;;;27.10;41.40;;;;;;5033886;28;19917;-74
2020/12/15 12:36:00;;;;;;;;;;;27.10;41.60;;;;;;5034567;28;19917;-76
2020/12/15 12:38:26;;;;;;;;;;;27.10;41.40;;;;;;5034342;28;19917;-74
2020/12/15 12:40:51;;;;;;;;;;;27.00;41.60;;;;;;5034229;28;19913;-75
2020/12/15 12:43:17;;;;;;;;;;;27.00;41.60;;;;;;5034076;28;19948;-75
2020/12/15 12:45:43;;;;;;;;;;;27.00;41.60;;;;;;5034382;28;20287;-76
2020/12/15 12:48:08;;;;;;;;;;;27.00;41.30;;;;;;5033971;28;19913;-72
2020/12/15 12:50:34;;;;;;;;;;;27.10;41.30;;;;;;5034092;28;19955;-60
2020/12/15 12:52:59;;;;;;;;;;;27.00;41.60;;;;;;5034167;28;19925;-59
2020/12/15 12:55:25;;;;;;;;;;;27.10;41.20;;;;;;5033643;28;20394;-61
2020/12/15 12:57:50;;;;;;;;;;;27.10;41.40;;;;;;5034235;28;20012;-59
2020/12/15 13:00:16;;;;;;;;;;;27.20;41.20;;;;;;5033631;28;19963;-55
2020/12/15 13:02:41;;;;;;;;;;;27.20;40.90;;;;;;5033865;28;19971;-56
2020/12/15 13:05:07;;;;;;;;;;;27.30;41.10;;;;;;5033632;28;19913;-62
2020/12/15 13:07:32;;;;;;;;;;;27.30;41.50;;;;;;5032966;28;19909;-64
2020/12/15 13:09:58;;;;;;;;;;;27.20;41.60;;;;;;5033643;28;19910;-64
2020/12/15 13:12:23;;;;;;;;;;;27.10;41.60;;;;;;5033374;28;19924;-64
2020/12/15 13:14:49;;;;;;;;;;;27.20;41.70;;;;;;5033287;28;20267;-64
2020/12/15 13:17:14;;;;;;;;;;;27.20;41.50;;;;;;5033499;28;19978;-64
2020/12/15 13:19:40;;;;;;;;;;;27.20;41.50;;;;;;5033531;28;19913;-63
2020/12/15 13:22:05;;;;;;;;;;;27.20;41.50;;;;;;5033682;28;19939;-63
2020/12/15 13:24:31;;;;;;;;;;;27.20;41.40;;;;;;5033152;28;19924;-63
2020/12/15 13:26:56;;;;;;;;;;;27.20;41.30;;;;;;5032710;28;19923;-63
2020/12/15 13:29:22;;;;;;;;;;;27.20;41.30;;;;;;5033471;28;19913;-64
2020/12/15 13:31:47;;;;;;;;;;;27.20;41.30;;;;;;5033459;28;20314;-63
2020/12/15 13:34:13;;;;;;;;;;;27.20;41.20;;;;;;5026263;28;19909;-64
2020/12/15 13:36:39;;;;;;;;;;;27.20;41.30;;;;;;5030201;28;19921;-64
2020/12/15 13:39:04;;;;;;;;;;;27.20;41.30;;;;;;5033423;28;19996;-64
2020/12/15 13:41:30;;;;;;;;;;;27.20;41.20;;;;;;5033224;28;20295;-64
2020/12/15 13:43:56;;;;;;;;;;;27.20;41.10;;;;;;5032899;28;19968;-64
2020/12/15 13:46:21;;;;;;;;;;;27.10;41.10;;;;;;5033047;28;19913;-63
2020/12/15 13:48:46;;;;;;;;;;;27.20;41.10;;;;;;5032993;28;19913;-64
2020/12/15 13:51:12;;;;;;;;;;;27.10;41.10;;;;;;5033074;28;19909;-63
2020/12/15 13:53:37;;;;;;;;;;;27.20;41.10;;;;;;5032928;28;19913;-63
2020/12/15 13:56:03;;;;;;;;;;;27.10;40.90;;;;;;5032312;28;19921;-64
2020/12/15 13:58:28;;;;;;;;;;;27.10;41.50;;;;;;5032958;28;19909;-63
2020/12/15 14:00:54;;;;;;;;;;;27.10;40.90;;;;;;5032588;28;20260;-64
2020/12/15 14:03:19;;;;;;;;;;;27.20;41.00;;;;;;5033100;28;19916;-63
2020/12/15 14:05:47;;;;;;;;;;;27.20;40.90;;;;;;5032835;28;19919;-63
2020/12/15 14:08:12;;;;;;;;;;;27.20;40.90;;;;;;5032811;28;19913;-63